Time;durP1;ratioP1;P1;durP2;ratioP2;P2;SDS_P1;SDS_P2;PMS_P1;PMS_P2;Temp;Humidity;BMP_temperature;BMP_pressure;BME280_temperature;BME280_humidity;BME280_pressure;Samples;Min_cycle;Max_cycle;Signal;HPM_P1;HPM_P2
2021/07/06 00:00:44;;;;;;;2.13;1.73;;;;;;;12.19;100.00;92672.94;2100679;28;20042;-84
2021/07/06 00:01:45;;;;;;;1.90;1.65;;;;;;;12.17;100.00;92669.97;2086882;28;20485;-84
2021/07/06 00:02:49;;;;;;;2.42;1.90;;;;;;;12.14;100.00;92674.25;2089486;28;20163;-84
2021/07/06 00:03:50;;;;;;;2.78;2.00;;;;;;;12.17;100.00;92665.34;2088440;28;20045;-83
2021/07/06 00:04:58;;;;;;;5.40;2.22;;;;;;;12.21;100.00;92670.59;2087242;28;20017;-84
2021/07/06 00:05:59;;;;;;;2.63;2.10;;;;;;;12.21;100.00;92668.66;2098654;28;20039;-83
2021/07/06 00:07:00;;;;;;;2.10;1.75;;;;;;;12.27;100.00;92671.50;2102438;28;20794;-85
2021/07/06 00:08:00;;;;;;;3.25;2.15;;;;;;;12.24;100.00;92667.75;2095143;28;20032;-84
2021/07/06 00:09:02;;;;;;;2.00;1.80;;;;;;;12.23;100.00;92668.19;2092363;28;20017;-84
2021/07/06 00:10:06;;;;;;;2.20;2.00;;;;;;;12.18;100.00;92672.19;2097205;28;20021;-84
2021/07/06 00:11:06;;;;;;;2.05;1.75;;;;;;;12.20;100.00;92672.50;2084422;28;20021;-83
2021/07/06 00:12:07;;;;;;;3.08;2.10;;;;;;;12.13;100.00;92674.69;2097603;28;20542;-84
2021/07/06 00:13:08;;;;;;;1.98;1.83;;;;;;;12.14;100.00;92673.50;2097763;28;20056;-84
2021/07/06 00:14:09;;;;;;;3.78;1.88;;;;;;;12.12;100.00;92671.25;2085366;28;20025;-85
2021/07/06 00:15:12;;;;;;;2.10;1.90;;;;;;;12.15;100.00;92672.31;2095308;28;20044;-85
2021/07/06 00:16:13;;;;;;;2.40;2.00;;;;;;;12.11;100.00;92667.06;2092624;28;20154;-86
2021/07/06 00:20:06;;;;;;;4.82;2.00;;;;;;;12.01;100.00;92668.94;2116127;28;20065;-85
2021/07/06 00:45:19;;;;;;;1.50;1.40;;;;;;;11.57;100.00;92639.41;2120414;27;20058;-85
2021/07/06 00:51:18;;;;;;;1.55;1.45;;;;;;;11.41;100.00;92623.50;2122877;27;20134;-84
2021/07/06 00:54:58;;;;;;;1.58;1.48;;;;;;;11.29;100.00;92621.63;2124227;27;20392;-84
2021/07/06 01:00:36;;;;;;;1.90;1.63;;;;;;;11.22;100.00;92621.84;2118086;27;20479;-84
2021/07/06 01:01:37;;;;;;;2.13;1.88;;;;;;;11.26;100.00;92619.78;2104410;28;20027;-84
2021/07/06 01:05:08;;;;;;;1.63;1.52;;;;;;;11.10;100.00;92620.66;2115697;28;20423;-84
2021/07/06 01:12:40;;;;;;;2.17;1.48;;;;;;;10.96;100.00;92608.50;2105626;27;20079;-84
2021/07/06 01:27:22;;;;;;;2.78;1.50;;;;;;;10.83;100.00;92591.72;2111680;27;20046;-84
2021/07/06 01:28:23;;;;;;;2.30;1.58;;;;;;;10.82;100.00;92611.63;2091847;28;20044;-84
2021/07/06 01:29:24;;;;;;;3.25;1.60;;;;;;;10.71;100.00;92603.16;2076005;28;20119;-84
2021/07/06 01:30:39;;;;;;;1.70;1.60;;;;;;;10.75;100.00;92607.22;2084988;28;20029;-84
2021/07/06 01:31:50;;;;;;;1.83;1.73;;;;;;;10.69;100.00;92595.59;2086372;28;20072;-84
2021/07/06 01:35:09;;;;;;;1.45;1.35;;;;;;;10.73;100.00;92596.22;2106755;28;20020;-84
2021/07/06 01:36:09;;;;;;;3.33;1.45;;;;;;;10.72;100.00;92596.66;2096579;28;20432;-84
2021/07/06 01:37:14;;;;;;;1.90;1.70;;;;;;;10.73;100.00;92606.19;2094920;28;20024;-85
2021/07/06 01:38:15;;;;;;;1.95;1.65;;;;;;;10.64;100.00;92598.81;2094611;28;20087;-84
2021/07/06 01:45:59;;;;;;;1.58;1.33;;;;;;;10.56;100.00;92592.91;2106927;28;20020;-83
2021/07/06 01:47:00;;;;;;;2.25;1.35;;;;;;;10.59;100.00;92594.75;2090892;28;20481;-84
2021/07/06 01:52:34;;;;;;;2.58;1.30;;;;;;;10.56;100.00;92598.25;2108532;28;20468;-84
2021/07/06 01:53:56;;;;;;;2.72;1.60;;;;;;;10.56;100.00;92598.25;2097787;28;20135;-85
2021/07/06 01:54:56;;;;;;;2.67;1.88;;;;;;;10.52;100.00;92594.94;2083914;28;20021;-84
2021/07/06 01:55:57;;;;;;;7.88;1.90;;;;;;;10.59;100.00;92589.41;2079912;28;20025;-84
2021/07/06 01:56:58;;;;;;;1.77;1.63;;;;;;;10.56;100.00;92589.50;2077552;28;20041;-84
2021/07/06 01:58:00;;;;;;;3.10;1.60;;;;;;;10.47;100.00;92592.06;2094995;28;20440;-84
2021/07/06 01:59:44;;;;;;;1.67;1.58;;;;;;;10.43;100.00;92591.41;2095189;28;20525;-84
2021/07/06 02:00:53;;;;;;;3.63;1.50;;;;;;;10.37;100.00;92595.81;2102945;28;20028;-84
2021/07/06 02:16:40;;;;;;;;;;;;;;;10.34;100.00;92574.09;2625656;22;20384;-84
2021/07/06 02:17:41;;;;;;;2.60;1.92;;;;;;;10.45;100.00;92583.75;2572125;23;19923;-84
2021/07/06 02:18:42;;;;;;;3.75;1.65;;;;;;;10.46;100.00;92571.88;2561664;23;20027;-84
2021/07/06 02:19:43;;;;;;;2.95;1.90;;;;;;;10.32;100.00;92573.78;2585218;22;20000;-84
2021/07/06 02:26:13;;;;;;;3.58;1.90;;;;;;;10.31;100.00;92566.19;2599916;22;20011;-84
2021/07/06 02:27:13;;;;;;;1.52;1.30;;;;;;;10.27;100.00;92571.66;2586118;23;20066;-84
2021/07/06 02:49:16;;;;;;;2.05;1.35;;;;;;;10.01;100.00;92565.50;2596855;22;20015;-85
2021/07/06 02:52:41;;;;;;;2.50;1.67;;;;;;;9.96;100.00;92575.94;2600130;22;20012;-84
2021/07/06 02:53:42;;;;;;;;;;;;;;;9.92;100.00;92565.38;2572596;23;20091;-85
2021/07/06 02:54:42;;;;;;;4.20;1.40;;;;;;;9.93;100.00;92569.53;2548047;23;19912;-84
2021/07/06 03:00:35;;;;;;;1.75;1.50;;;;;;;9.79;100.00;92572.63;2599823;22;20003;-85
2021/07/06 03:06:49;;;;;;;2.22;1.60;;;;;;;9.71;100.00;92566.72;2584242;22;20376;-85
2021/07/06 03:07:51;;;;;;;1.90;1.77;;;;;;;9.72;100.00;92554.13;2585654;23;20003;-84
2021/07/06 03:08:54;;;;;;;1.92;1.70;;;;;;;9.72;100.00;92554.13;2572868;23;20103;-84
2021/07/06 03:09:54;;;;;;;2.60;1.63;;;;;;;9.70;100.00;92545.78;2573033;23;20008;-84
2021/07/06 03:10:55;;;;;;;1.35;1.25;;;;;;;9.71;100.00;92541.97;2560449;23;20008;-84
2021/07/06 03:11:56;;;;;;;3.17;1.77;;;;;;;9.70;100.00;92543.09;2548288;23;20013;-84
2021/07/06 03:12:57;;;;;;;2.92;1.85;;;;;;;9.70;100.00;92543.09;2548108;23;20008;-85
2021/07/06 03:13:58;;;;;;;1.40;1.30;;;;;;;9.68;100.00;92537.47;2560642;23;20008;-84
2021/07/06 03:14:58;;;;;;;1.88;1.58;;;;;;;9.67;100.00;92543.97;2560440;23;20603;-84
2021/07/06 03:16:00;;;;;;;1.50;1.40;;;;;;;9.66;100.00;92545.91;2548268;23;20437;-84
2021/07/06 03:17:01;;;;;;;3.42;1.67;;;;;;;9.69;100.00;92536.28;2559396;23;20103;-84
2021/07/06 03:18:04;;;;;;;1.85;1.60;;;;;;;9.69;100.00;92531.69;2569863;23;20004;-85
2021/07/06 03:19:05;;;;;;;1.65;1.55;;;;;;;9.70;100.00;92530.53;2558202;23;20337;-84
2021/07/06 03:20:08;;;;;;;1.77;1.67;;;;;;;9.68;100.00;92530.19;2570079;23;20032;-85
2021/07/06 03:21:08;;;;;;;1.50;1.40;;;;;;;9.65;100.00;92528.38;2570645;23;20005;-84
2021/07/06 03:22:09;;;;;;;1.40;1.20;;;;;;;9.57;100.00;92521.75;2557898;23;20008;-84
2021/07/06 03:23:10;;;;;;;2.90;1.65;;;;;;;9.55;100.00;92514.16;2545513;23;20006;-83
2021/07/06 03:24:30;;;;;;;3.78;1.48;;;;;;;9.57;100.00;92519.09;2558193;23;20071;-84
2021/07/06 03:25:52;;;;;;;2.10;1.40;;;;;;;9.59;100.00;92514.81;2553575;23;20438;-83
2021/07/06 03:27:08;;;;;;;1.70;1.60;;;;;;;9.61;100.00;92519.72;2566698;23;20390;-83
2021/07/06 03:28:09;;;;;;;1.70;1.42;;;;;;;9.62;100.00;92515.91;2560849;23;20039;-83
2021/07/06 03:29:09;;;;;;;1.77;1.67;;;;;;;9.63;100.00;92516.63;2545456;23;20431;-84
2021/07/06 03:30:16;;;;;;;1.52;1.40;;;;;;;9.60;100.00;92510.22;2544954;23;20036;-85
2021/07/06 03:31:17;;;;;;;2.33;1.90;;;;;;;9.56;100.00;92520.97;2572753;22;20310;-84
2021/07/06 03:32:18;;;;;;;1.48;1.38;;;;;;;9.57;100.00;92509.16;2595262;22;20025;-83
2021/07/06 04:14:04;;;;;;;1.98;1.70;;;;;;;10.01;100.00;92482.75;2595110;22;20435;-84
2021/07/06 04:17:05;;;;;;;5.53;1.75;;;;;;;10.07;100.00;92473.00;2581271;23;20020;-84
2021/07/06 04:18:06;;;;;;;2.38;2.17;;;;;;;10.19;100.00;92484.13;2558763;23;20012;-84
2021/07/06 04:19:06;;;;;;;5.13;1.95;;;;;;;10.19;100.00;92481.47;2570286;23;20004;-84
2021/07/06 04:20:09;;;;;;;4.00;2.03;;;;;;;10.23;100.00;92472.16;2557701;23;20031;-84
2021/07/06 04:21:10;;;;;;;3.70;2.42;;;;;;;10.30;100.00;92481.88;2558149;23;20011;-84
2021/07/06 04:39:07;;;;;;;2.05;1.92;;;;;;;11.13;100.00;92475.38;2593777;22;20599;-83
2021/07/06 04:40:08;;;;;;;2.20;2.00;;;;;;;11.19;100.00;92470.22;2569526;23;20035;-84
2021/07/06 04:41:09;;;;;;;2.75;2.13;;;;;;;11.22;100.00;92472.03;2545122;23;20006;-83
2021/07/06 04:42:12;;;;;;;4.47;2.20;;;;;;;11.27;100.00;92476.81;2557129;23;20009;-85
2021/07/06 04:43:14;;;;;;;2.92;2.15;;;;;;;11.33;100.00;92464.38;2558005;23;20332;-84
2021/07/06 04:44:15;;;;;;;4.45;2.08;;;;;;;11.34;100.00;92471.97;2569804;23;20015;-85
2021/07/06 04:54:38;;;;;;;1.77;1.67;;;;;;;11.84;100.00;92477.47;2593974;22;20091;-85
2021/07/06 04:55:40;;;;;;;2.05;1.95;;;;;;;11.90;100.00;92469.66;2569891;23;20474;-84
2021/07/06 04:56:40;;;;;;;2.00;1.90;;;;;;;12.01;100.00;92478.00;2557398;23;20028;-85
2021/07/06 04:57:41;;;;;;;4.25;2.08;;;;;;;12.01;100.00;92481.44;2569731;23;20042;-84
2021/07/06 04:58:42;;;;;;;2.28;1.98;;;;;;;12.08;100.00;92478.50;2557469;23;20005;-85
2021/07/06 06:24:36;;;;;;;1.38;1.17;;;;;;;16.13;96.42;92509.56;2590158;22;20015;-85
2021/07/06 06:26:09;;;;;;;2.97;1.35;;;;;;;16.16;97.83;92514.03;2555975;23;20067;-85
2021/07/06 06:27:10;;;;;;;1.73;1.20;;;;;;;16.21;97.68;92511.41;2555519;23;20497;-85
2021/07/06 06:28:10;;;;;;;1.35;1.13;;;;;;;16.27;96.71;92519.56;2554143;23;20028;-85
2021/07/06 06:29:11;;;;;;;1.33;1.10;;;;;;;16.29;98.17;92514.47;2555694;23;20001;-85
2021/07/06 06:48:51;;;;;;;2.53;1.40;;;;;;;17.44;96.24;92528.59;2580813;23;20673;-85
2021/07/06 06:49:52;;;;;;;1.85;1.13;;;;;;;17.57;95.43;92528.97;2556577;23;20009;-86
2021/07/06 06:50:53;;;;;;;1.20;1.10;;;;;;;17.73;95.36;92535.78;2544441;23;20441;-86
2021/07/06 06:51:53;;;;;;;1.50;0.95;;;;;;;17.85;93.75;92525.84;2543765;23;20414;-86
2021/07/06 06:52:54;;;;;;;1.00;1.00;;;;;;;17.94;93.23;92527.66;2532677;23;20053;-86
2021/07/06 06:53:55;;;;;;;1.23;1.13;;;;;;;17.97;94.21;92532.13;2532820;23;20010;-85
2021/07/06 06:54:55;;;;;;;1.55;1.20;;;;;;;18.04;94.22;92518.94;2544555;23;20722;-86
2021/07/06 06:55:56;;;;;;;1.10;1.00;;;;;;;18.11;92.87;92532.00;2544941;23;20412;-85
2021/07/06 06:56:58;;;;;;;1.63;1.10;;;;;;;18.28;88.49;92528.72;2532370;23;20017;-85
2021/07/06 06:57:59;;;;;;;0.93;0.93;;;;;;;18.23;89.87;92527.44;2544513;23;20017;-85
2021/07/06 06:59:00;;;;;;;1.77;0.93;;;;;;;18.26;91.43;92520.31;2544502;23;20028;-85
2021/07/06 08:12:05;;;;;;;1.50;1.23;;;;;;;20.53;76.41;92582.06;2578155;22;20027;-85
2021/07/06 08:13:09;;;;;;;1.83;1.17;;;;;;;20.69;74.38;92586.06;2556049;23;20109;-85
2021/07/06 08:14:10;;;;;;;1.73;1.05;;;;;;;20.85;73.74;92583.34;2556003;23;20001;-85
2021/07/06 08:15:11;;;;;;;1.27;1.10;;;;;;;21.04;71.18;92588.25;2555749;23;20017;-85
2021/07/06 08:16:27;;;;;;;2.60;1.20;;;;;;;21.19;68.27;92585.28;2556380;23;20079;-85
2021/07/06 08:17:27;;;;;;;1.20;1.10;;;;;;;21.29;66.52;92591.91;2562619;23;20009;-86
2021/07/06 08:18:28;;;;;;;1.00;0.90;;;;;;;21.37;62.95;92582.78;2569589;23;20000;-86
2021/07/06 08:19:29;;;;;;;2.58;1.10;;;;;;;21.29;67.23;92560.06;2568898;23;20000;-86
2021/07/06 08:28:07;;;;;;;1.60;1.20;;;;;;;21.58;62.11;92585.22;2592284;22;20026;-86
2021/07/06 08:29:27;;;;;;;2.15;1.40;;;;;;;21.45;65.19;92590.44;2566420;23;20272;-86
2021/07/06 08:34:41;;;;;;;1.73;1.20;;;;;;;21.39;66.38;92628.53;2593649;22;20015;-86
2021/07/06 08:35:41;;;;;;;1.60;1.50;;;;;;;21.29;66.47;92621.81;2565732;23;20091;-86
2021/07/06 09:49:58;;;;;;;2.33;2.08;;;;;;;19.36;78.56;92629.25;2578796;23;20332;-86
2021/07/06 09:51:24;;;;;;;2.60;2.40;;;;;;;19.49;79.04;92650.47;2554344;23;20013;-84
2021/07/06 09:52:24;;;;;;;2.33;2.13;;;;;;;19.68;81.65;92648.16;2538641;23;20005;-85
2021/07/06 09:53:54;;;;;;;2.10;2.00;;;;;;;19.81;79.54;92640.34;2553590;23;20398;-87
2021/07/06 09:54:55;;;;;;;1.70;1.55;;;;;;;19.80;75.13;92634.19;2553361;23;20005;-85
2021/07/06 09:55:56;;;;;;;2.20;1.98;;;;;;;19.89;77.94;92627.81;2528417;23;20357;-85
2021/07/06 09:57:06;;;;;;;2.08;1.98;;;;;;;19.80;81.10;92620.63;2529776;23;20010;-83
2021/07/06 09:58:07;;;;;;;2.00;1.90;;;;;;;19.84;78.61;92617.66;2530550;23;20518;-84
2021/07/06 09:59:14;;;;;;;2.13;1.98;;;;;;;20.03;76.10;92613.28;2529481;23;20006;-86
2021/07/06 10:00:19;;;;;;;1.83;1.73;;;;;;;19.80;76.58;92612.47;2544074;23;20469;-83
2021/07/06 10:01:21;;;;;;;3.33;1.83;;;;;;;19.72;76.24;92616.88;2541792;23;20440;-86
2021/07/06 10:02:23;;;;;;;2.42;2.15;;;;;;;19.69;75.96;92625.25;2529475;23;20571;-84
2021/07/06 10:03:26;;;;;;;1.83;1.73;;;;;;;19.87;74.23;92617.41;2541557;23;20479;-83
2021/07/06 10:04:28;;;;;;;2.20;2.03;;;;;;;19.86;77.79;92626.78;2541947;23;20045;-85
2021/07/06 10:05:29;;;;;;;2.10;1.90;;;;;;;19.70;78.39;92622.03;2553555;23;20036;-84
2021/07/06 10:06:30;;;;;;;4.50;2.03;;;;;;;19.66;79.87;92634.34;2541175;23;20005;-84
2021/07/06 10:07:31;;;;;;;2.15;1.95;;;;;;;19.64;79.96;92642.22;2540690;23;20017;-85
2021/07/06 10:08:33;;;;;;;2.35;1.98;;;;;;;19.60;80.44;92659.47;2529035;23;20060;-84
2021/07/06 10:09:35;;;;;;;2.10;1.90;;;;;;;19.50;81.44;92668.25;2540398;23;20332;-84
2021/07/06 10:10:36;;;;;;;2.08;1.98;;;;;;;19.51;80.92;92669.72;2529034;23;20013;-86
2021/07/06 10:11:37;;;;;;;2.85;1.90;;;;;;;19.49;81.00;92675.66;2529411;23;20010;-86
2021/07/06 10:12:42;;;;;;;1.80;1.70;;;;;;;19.27;78.55;92687.06;2541069;23;20012;-84
2021/07/06 10:13:42;;;;;;;2.17;1.92;;;;;;;19.23;80.26;92681.13;2542112;23;20425;-84
2021/07/06 10:14:44;;;;;;;1.98;1.52;;;;;;;19.34;77.95;92683.16;2553932;23;20446;-84
2021/07/06 10:15:45;;;;;;;4.65;1.88;;;;;;;19.44;78.99;92689.88;2541077;23;20005;-87
2021/07/06 10:16:47;;;;;;;1.83;1.73;;;;;;;19.48;79.83;92687.69;2553736;23;20028;-85
2021/07/06 10:17:50;;;;;;;2.08;1.88;;;;;;;19.36;81.10;92692.31;2541894;23;20009;-84
2021/07/06 10:18:51;;;;;;;2.25;2.05;;;;;;;19.21;81.36;92682.81;2530191;23;20061;-84
2021/07/06 10:19:52;;;;;;;2.00;1.80;;;;;;;19.30;80.28;92669.84;2528935;23;20376;-84
2021/07/06 10:20:54;;;;;;;1.83;1.73;;;;;;;19.50;77.36;92662.84;2529177;23;20034;-86
2021/07/06 10:21:55;;;;;;;2.17;1.98;;;;;;;19.47;80.20;92661.81;2528251;23;20437;-85
2021/07/06 10:22:59;;;;;;;2.30;2.10;;;;;;;19.54;80.02;92674.94;2541277;23;20108;-85
2021/07/06 10:24:04;;;;;;;2.78;2.03;;;;;;;19.66;80.31;92683.16;2542801;23;20499;-85
2021/07/06 10:25:08;;;;;;;2.08;1.90;;;;;;;19.86;77.90;92675.63;2541554;23;20021;-87
2021/07/06 10:26:13;;;;;;;2.38;1.60;;;;;;;19.79;77.71;92669.91;2542351;23;20010;-86
2021/07/06 10:27:27;;;;;;;2.47;2.00;;;;;;;19.56;77.04;92664.34;2542260;23;20093;-84
2021/07/06 10:28:30;;;;;;;1.83;1.70;;;;;;;19.52;77.04;92654.94;2544233;23;20491;-84
2021/07/06 10:29:35;;;;;;;1.85;1.67;;;;;;;19.72;78.20;92641.28;2542783;23;20037;-86
2021/07/06 10:30:41;;;;;;;2.13;1.92;;;;;;;19.95;76.25;92639.41;2554665;23;20009;-86
2021/07/06 10:31:43;;;;;;;3.40;1.63;;;;;;;20.03;76.66;92635.00;2530814;23;20010;-84
2021/07/06 10:32:48;;;;;;;1.80;1.70;;;;;;;20.09;78.05;92632.31;2542279;23;20363;-84
2021/07/06 10:33:50;;;;;;;1.65;1.55;;;;;;;20.07;77.29;92643.66;2542510;23;20407;-84
2021/07/06 10:34:51;;;;;;;2.42;1.75;;;;;;;20.23;78.17;92649.59;2554003;23;20059;-85
2021/07/06 10:35:52;;;;;;;2.05;1.95;;;;;;;20.18;75.55;92661.19;2554239;23;20128;-84
2021/07/06 10:36:53;;;;;;;1.67;1.58;;;;;;;20.20;73.85;92658.75;2542131;23;20020;-86
2021/07/06 10:37:53;;;;;;;2.45;1.55;;;;;;;20.07;72.82;92653.78;2529808;23;20331;-86
2021/07/06 10:38:58;;;;;;;1.85;1.75;;;;;;;19.96;72.37;92657.16;2542222;23;20080;-84
2021/07/06 10:40:18;;;;;;;1.70;1.60;;;;;;;19.77;72.28;92654.13;2542735;23;20096;-86
2021/07/06 10:41:38;;;;;;;1.70;1.60;;;;;;;19.79;71.51;92642.78;2536591;23;20087;-86
2021/07/06 10:42:40;;;;;;;2.20;1.70;;;;;;;19.65;74.46;92651.84;2539551;23;20336;-84
2021/07/06 10:43:43;;;;;;;1.40;1.30;;;;;;;19.60;72.05;92656.75;2542234;23;20353;-87
2021/07/06 10:44:44;;;;;;;2.05;1.70;;;;;;;19.50;71.61;92650.00;2542180;23;20036;-86
2021/07/06 10:45:45;;;;;;;1.92;1.77;;;;;;;19.44;74.83;92651.19;2529573;23;20002;-86
2021/07/06 10:46:46;;;;;;;1.75;1.27;;;;;;;19.43;73.92;92644.28;2528618;23;20371;-86
2021/07/06 10:47:56;;;;;;;1.45;1.35;;;;;;;19.20;76.22;92638.72;2529870;23;20006;-85
2021/07/06 10:49:11;;;;;;;1.73;1.60;;;;;;;19.26;76.56;92647.63;2545825;23;20017;-83
2021/07/06 10:50:29;;;;;;;1.60;1.50;;;;;;;19.10;77.85;92654.44;2544595;23;20423;-88
2021/07/06 10:51:36;;;;;;;1.85;1.75;;;;;;;19.03;79.99;92652.16;2548978;23;20399;-88
2021/07/06 10:52:37;;;;;;;1.92;1.83;;;;;;;19.04;77.35;92650.94;2543153;23;20382;-86
2021/07/06 10:53:38;;;;;;;2.00;1.85;;;;;;;19.06;76.32;92653.91;2541682;23;20006;-84
2021/07/06 10:54:38;;;;;;;1.98;1.75;;;;;;;18.86;77.83;92643.16;2554437;23;20183;-88
2021/07/06 10:55:40;;;;;;;2.25;2.00;;;;;;;18.86;78.47;92641.19;2566216;23;20007;-86
2021/07/06 10:56:49;;;;;;;2.10;1.90;;;;;;;18.83;78.96;92636.75;2553847;23;20087;-85
2021/07/06 10:57:50;;;;;;;1.90;1.75;;;;;;;18.90;78.45;92649.09;2543781;23;20010;-85
2021/07/06 10:58:57;;;;;;;1.88;1.77;;;;;;;18.98;79.29;92677.25;2541015;23;20005;-84
2021/07/06 10:59:58;;;;;;;2.15;1.95;;;;;;;18.82;82.03;92705.66;2555850;23;20032;-84
2021/07/06 11:00:59;;;;;;;2.45;1.73;;;;;;;18.71;81.14;92715.66;2541519;23;20425;-84
2021/07/06 11:02:06;;;;;;;1.90;1.70;;;;;;;18.61;81.53;92706.88;2541965;23;20001;-86
2021/07/06 11:03:20;;;;;;;1.90;1.80;;;;;;;18.61;82.29;92715.00;2544439;23;20099;-85
2021/07/06 11:04:43;;;;;;;1.73;1.63;;;;;;;18.53;81.60;92724.78;2556578;23;20408;-83
2021/07/06 11:05:44;;;;;;;2.28;1.95;;;;;;;18.61;82.79;92732.03;2545348;23;20097;-84
2021/07/06 11:06:45;;;;;;;1.80;1.70;;;;;;;18.56;82.02;92735.38;2554102;23;20093;-85
2021/07/06 11:07:49;;;;;;;1.92;1.77;;;;;;;18.54;83.62;92737.84;2529213;23;20337;-85
2021/07/06 11:08:50;;;;;;;1.70;1.60;;;;;;;18.55;84.34;92727.75;2543154;23;20056;-85
2021/07/06 11:09:50;;;;;;;1.80;1.70;;;;;;;18.58;84.65;92721.41;2566761;23;20095;-84
2021/07/06 11:10:51;;;;;;;1.80;1.70;;;;;;;18.64;82.41;92730.31;2541178;23;20068;-85
2021/07/06 11:11:52;;;;;;;1.83;1.73;;;;;;;18.61;82.63;92729.31;2541391;23;20077;-85
2021/07/06 11:12:52;;;;;;;2.65;2.03;;;;;;;18.70;82.05;92730.38;2542255;23;20012;-86
2021/07/06 11:14:20;;;;;;;1.65;1.55;;;;;;;18.52;82.67;92728.69;2541592;23;20037;-84
2021/07/06 11:15:27;;;;;;;2.05;1.80;;;;;;;18.60;79.80;92733.22;2547332;23;20041;-84
2021/07/06 11:16:36;;;;;;;1.73;1.63;;;;;;;18.80;78.45;92731.75;2531931;23;20318;-86
2021/07/06 11:17:48;;;;;;;1.75;1.48;;;;;;;18.71;80.08;92727.22;2544958;23;20387;-85
2021/07/06 11:18:49;;;;;;;4.10;1.77;;;;;;;18.76;79.84;92747.44;2544583;23;20016;-86
2021/07/06 11:19:58;;;;;;;1.90;1.50;;;;;;;18.55;81.79;92741.28;2541568;23;20012;-84
2021/07/06 11:20:59;;;;;;;1.65;1.55;;;;;;;18.57;80.63;92742.31;2543791;23;20005;-86
2021/07/06 11:22:15;;;;;;;1.67;1.58;;;;;;;18.47;80.97;92749.06;2541569;23;20128;-85
2021/07/06 11:23:33;;;;;;;1.77;1.67;;;;;;;18.55;80.08;92750.16;2556809;23;20467;-86
2021/07/06 11:24:41;;;;;;;2.10;1.73;;;;;;;18.50;81.14;92748.13;2557729;23;20416;-85
2021/07/06 11:25:44;;;;;;;1.60;1.50;;;;;;;18.51;79.89;92744.19;2542847;23;20012;-84
2021/07/06 11:26:46;;;;;;;1.83;1.50;;;;;;;18.64;78.15;92741.13;2542931;23;20021;-86
2021/07/06 11:28:01;;;;;;;1.60;1.40;;;;;;;18.75;78.12;92745.97;2567053;23;20044;-83
2021/07/06 11:29:02;;;;;;;1.58;1.48;;;;;;;18.69;79.77;92747.81;2566248;23;20083;-85
2021/07/06 11:30:33;;;;;;;1.67;1.58;;;;;;;18.73;77.47;92743.72;2542160;23;20013;-88
2021/07/06 11:31:34;;;;;;;2.00;1.63;;;;;;;18.76;78.62;92748.19;2553519;23;20008;-83
2021/07/06 11:33:03;;;;;;;1.70;1.60;;;;;;;18.66;77.03;92743.34;2541919;23;20012;-88
2021/07/06 11:34:05;;;;;;;1.65;1.48;;;;;;;18.54;79.46;92737.09;2553705;23;20541;-86
2021/07/06 11:35:06;;;;;;;1.75;1.63;;;;;;;18.59;76.39;92726.31;2553265;23;20007;-87
2021/07/06 11:36:19;;;;;;;2.22;1.83;;;;;;;18.54;78.27;92739.81;2542353;23;20100;-84
2021/07/06 11:37:19;;;;;;;1.90;1.80;;;;;;;18.34;81.03;92725.06;2553556;23;20428;-84
2021/07/06 11:38:26;;;;;;;1.73;1.63;;;;;;;18.38;82.01;92730.28;2541484;23;20009;-85
2021/07/06 11:39:27;;;;;;;1.90;1.60;;;;;;;18.45;82.93;92718.31;2554318;23;20017;-84
2021/07/06 11:40:28;;;;;;;1.40;1.30;;;;;;;18.23;82.34;92705.25;2554561;23;20462;-86
2021/07/06 11:41:29;;;;;;;2.95;1.83;;;;;;;18.10;84.84;92694.78;2566194;23;20015;-85
2021/07/06 11:42:30;;;;;;;1.77;1.67;;;;;;;18.24;82.08;92699.38;2541785;23;20044;-85
2021/07/06 11:43:32;;;;;;;2.63;1.67;;;;;;;18.07;84.32;92696.47;2541895;23;20316;-86
2021/07/06 11:44:34;;;;;;;1.77;1.67;;;;;;;17.97;87.17;92719.47;2542010;23;20056;-89
2021/07/06 11:45:36;;;;;;;2.35;1.75;;;;;;;18.04;88.42;92731.81;2553942;23;20346;-87
2021/07/06 11:46:36;;;;;;;2.17;1.98;;;;;;;17.90;90.15;92751.56;2566311;23;20414;-86
2021/07/06 11:47:37;;;;;;;2.13;1.63;;;;;;;17.81;89.18;92755.88;2553453;23;20068;-85
2021/07/06 11:48:40;;;;;;;1.77;1.67;;;;;;;17.93;88.66;92761.44;2541877;23;20080;-87
2021/07/06 11:49:40;;;;;;;2.00;1.83;;;;;;;17.85;90.29;92752.97;2560908;23;20094;-85
2021/07/06 11:50:43;;;;;;;2.00;1.90;;;;;;;17.97;84.71;92753.88;2579477;23;20012;-85
2021/07/06 11:51:44;;;;;;;1.80;1.70;;;;;;;18.04;84.31;92756.16;2567152;23;20419;-85
2021/07/06 11:52:45;;;;;;;3.72;1.88;;;;;;;18.15;84.63;92769.09;2554295;23;20011;-86
2021/07/06 11:53:56;;;;;;;1.80;1.70;;;;;;;18.12;86.46;92782.34;2553978;23;20005;-86
2021/07/06 11:54:58;;;;;;;2.45;1.63;;;;;;;18.04;84.61;92783.22;2546745;23;20084;-85
2021/07/06 11:56:00;;;;;;;1.45;1.35;;;;;;;17.91;86.24;92793.59;2553747;23;20556;-84
2021/07/06 11:57:10;;;;;;;2.15;1.70;;;;;;;17.66;88.73;92798.41;2566311;23;20050;-85
2021/07/06 11:58:12;;;;;;;2.40;1.67;;;;;;;17.75;87.08;92800.28;2557215;23;20432;-84
2021/07/06 11:59:13;;;;;;;1.75;1.65;;;;;;;17.61;90.15;92802.50;2553746;23;20055;-85
2021/07/06 12:00:14;;;;;;;1.90;1.73;;;;;;;17.64;90.44;92811.63;2553872;23;20375;-85
2021/07/06 12:01:15;;;;;;;1.70;1.60;;;;;;;17.66;89.97;92813.88;2554169;23;20007;-85
2021/07/06 12:02:15;;;;;;;2.17;1.67;;;;;;;17.57;90.26;92820.88;2542330;23;20048;-86
2021/07/06 12:03:21;;;;;;;1.80;1.70;;;;;;;17.61;89.36;92817.97;2554359;23;20005;-85
2021/07/06 12:04:23;;;;;;;4.22;2.47;;;;;;;17.56;90.54;92810.50;2566819;23;20410;-87
2021/07/06 12:05:24;;;;;;;1.95;1.75;;;;;;;17.49;92.18;92791.97;2542103;23;20374;-84
2021/07/06 12:06:28;;;;;;;3.22;1.90;;;;;;;17.55;91.92;92798.22;2541699;23;20097;-86
2021/07/06 12:07:29;;;;;;;1.90;1.80;;;;;;;17.71;89.30;92797.00;2555995;23;20016;-87
2021/07/06 12:08:49;;;;;;;1.73;1.60;;;;;;;17.79;90.79;92787.31;2553599;23;20028;-85
2021/07/06 12:10:01;;;;;;;2.10;1.60;;;;;;;17.91;87.87;92794.38;2550265;23;20005;-85
2021/07/06 12:11:08;;;;;;;2.42;1.90;;;;;;;17.89;88.46;92802.19;2546298;23;20005;-84
2021/07/06 12:12:14;;;;;;;2.53;1.60;;;;;;;18.00;86.46;92798.88;2556464;23;20013;-83
2021/07/06 12:13:15;;;;;;;3.33;1.98;;;;;;;17.90;87.57;92797.53;2554849;23;20009;-86
2021/07/06 12:14:19;;;;;;;1.70;1.50;;;;;;;17.90;87.48;92797.53;2542110;23;20010;-85
2021/07/06 12:15:36;;;;;;;2.13;1.92;;;;;;;17.99;89.01;92798.16;2543518;23;20005;-85
2021/07/06 12:16:38;;;;;;;1.73;1.63;;;;;;;17.95;89.09;92796.84;2573589;22;19997;-86
2021/07/06 12:17:38;;;;;;;1.70;1.60;;;;;;;17.96;86.54;92788.28;2566078;23;20496;-88
2021/07/06 12:18:55;;;;;;;2.63;1.80;;;;;;;17.77;88.15;92797.84;2541984;23;20012;-88
2021/07/06 12:19:58;;;;;;;2.03;1.83;;;;;;;17.93;89.50;92805.44;2560499;23;20487;-86
2021/07/06 12:21:07;;;;;;;2.03;1.88;;;;;;;17.94;91.02;92800.78;2566679;23;20015;-85
2021/07/06 12:22:08;;;;;;;2.28;1.88;;;;;;;18.01;92.78;92806.56;2556161;23;20087;-84
2021/07/06 12:23:09;;;;;;;2.10;1.90;;;;;;;18.24;90.41;92806.84;2541926;23;20333;-85
2021/07/06 12:24:16;;;;;;;1.80;1.70;;;;;;;18.37;90.08;92812.69;2541588;23;20008;-86
2021/07/06 12:25:16;;;;;;;1.92;1.80;;;;;;;18.56;86.91;92803.06;2543517;23;20084;-88
2021/07/06 12:26:18;;;;;;;1.95;1.60;;;;;;;18.59;88.01;92807.53;2554070;23;20009;-87
2021/07/06 12:27:19;;;;;;;1.80;1.70;;;;;;;18.63;88.64;92804.63;2566434;23;20083;-84
2021/07/06 12:28:20;;;;;;;2.03;1.70;;;;;;;18.69;90.33;92801.97;2541597;23;20096;-85
2021/07/06 12:29:26;;;;;;;2.25;1.65;;;;;;;18.87;90.10;92799.00;2553758;23;20369;-85
2021/07/06 12:30:27;;;;;;;2.00;1.83;;;;;;;18.87;87.29;92796.28;2553928;23;20013;-87
2021/07/06 12:31:35;;;;;;;1.60;1.50;;;;;;;18.90;87.54;92798.06;2553219;23;20008;-85
2021/07/06 12:32:36;;;;;;;3.28;1.80;;;;;;;18.97;87.91;92802.31;2567204;23;20016;-85
2021/07/06 12:33:37;;;;;;;2.22;1.75;;;;;;;18.84;88.19;92799.97;2553857;23;20399;-85
2021/07/06 12:34:38;;;;;;;1.70;1.60;;;;;;;18.62;85.21;92795.03;2540915;23;20006;-86
2021/07/06 12:35:54;;;;;;;1.92;1.73;;;;;;;18.60;87.61;92795.47;2540860;23;20073;-85
2021/07/06 12:36:55;;;;;;;2.75;1.85;;;;;;;18.82;88.07;92796.97;2556834;23;20325;-85
2021/07/06 12:38:05;;;;;;;1.98;1.60;;;;;;;18.70;88.88;92798.06;2554007;23;20009;-84
2021/07/06 12:39:14;;;;;;;1.83;1.27;;;;;;;18.46;88.90;92790.91;2565994;23;20054;-85
2021/07/06 12:40:15;;;;;;;1.40;1.30;;;;;;;18.36;88.49;92792.25;2557001;23;20043;-88